Terminal Aerodrome Forecast
Issued by NWS Mt. Holly, NJ

Home | Current Version | Previous Version | Text Only | Print | Product List | Glossary On
Versions: 1 2 3 4 5 6 7 8 9 10 11 12 13
000
FTUS41 KPHI 030532
TAFABE
TAF
KABE 030532Z 0306/0406 VRB02KT P6SM SCT070
     FM031400 23006KT P6SM SCT250
     FM031600 22010G18KT P6SM SCT050
     FM040000 20006KT P6SM BKN200=

USA.gov is the U.S. government's official web portal to all federal, state and local government web resources and services.